sensor_id;sensor_type;location;lat;lon;timestamp;P1;durP1;ratioP1;P2;durP2;ratioP2
50393;SDS011;36308;46.312;25.288;2022-11-12T00:02:17;50.13;;;30.70;;
50393;SDS011;36308;46.312;25.288;2022-11-12T00:04:43;49.67;;;30.90;;
50393;SDS011;36308;46.312;25.288;2022-11-12T00:07:08;50.08;;;30.15;;
50393;SDS011;36308;46.312;25.288;2022-11-12T00:09:34;59.92;;;34.13;;
50393;SDS011;36308;46.312;25.288;2022-11-12T00:11:59;46.20;;;29.35;;
50393;SDS011;36308;46.312;25.288;2022-11-12T00:14:25;42.83;;;25.52;;
50393;SDS011;36308;46.312;25.288;2022-11-12T00:16:50;39.10;;;23.67;;
50393;SDS011;36308;46.312;25.288;2022-11-12T00:19:15;37.47;;;21.52;;
50393;SDS011;36308;46.312;25.288;2022-11-12T00:21:41;40.63;;;21.63;;
50393;SDS011;36308;46.312;25.288;2022-11-12T00:24:06;34.42;;;21.90;;
50393;SDS011;36308;46.312;25.288;2022-11-12T00:26:32;37.83;;;22.67;;
50393;SDS011;36308;46.312;25.288;2022-11-12T00:28:57;36.15;;;22.30;;
50393;SDS011;36308;46.312;25.288;2022-11-12T00:31:22;38.28;;;23.65;;
50393;SDS011;36308;46.312;25.288;2022-11-12T00:33:49;32.65;;;21.08;;
50393;SDS011;36308;46.312;25.288;2022-11-12T00:36:14;43.28;;;25.15;;
50393;SDS011;36308;46.312;25.288;2022-11-12T00:38:40;39.97;;;24.10;;
50393;SDS011;36308;46.312;25.288;2022-11-12T00:41:05;39.47;;;23.70;;
50393;SDS011;36308;46.312;25.288;2022-11-12T00:43:31;37.80;;;22.08;;
50393;SDS011;36308;46.312;25.288;2022-11-12T00:45:56;33.60;;;20.65;;
50393;SDS011;36308;46.312;25.288;2022-11-12T00:48:22;33.65;;;20.92;;
50393;SDS011;36308;46.312;25.288;2022-11-12T00:50:47;35.78;;;22.05;;
50393;SDS011;36308;46.312;25.288;2022-11-12T00:53:12;37.55;;;22.45;;
50393;SDS011;36308;46.312;25.288;2022-11-12T00:55:38;40.40;;;24.08;;
50393;SDS011;36308;46.312;25.288;2022-11-12T00:58:03;41.83;;;24.42;;
50393;SDS011;36308;46.312;25.288;2022-11-12T01:00:29;40.05;;;23.42;;
50393;SDS011;36308;46.312;25.288;2022-11-12T01:02:54;33.33;;;21.25;;
50393;SDS011;36308;46.312;25.288;2022-11-12T01:05:19;34.88;;;21.40;;
50393;SDS011;36308;46.312;25.288;2022-11-12T01:07:46;29.50;;;19.23;;
50393;SDS011;36308;46.312;25.288;2022-11-12T01:10:12;31.92;;;18.73;;
50393;SDS011;36308;46.312;25.288;2022-11-12T01:12:38;28.10;;;18.75;;
50393;SDS011;36308;46.312;25.288;2022-11-12T01:15:04;27.42;;;17.10;;
50393;SDS011;36308;46.312;25.288;2022-11-12T01:17:31;26.08;;;16.92;;
50393;SDS011;36308;46.312;25.288;2022-11-12T01:19:56;32.42;;;18.42;;
50393;SDS011;36308;46.312;25.288;2022-11-12T01:22:21;34.38;;;18.45;;
50393;SDS011;36308;46.312;25.288;2022-11-12T01:24:47;27.95;;;18.35;;
50393;SDS011;36308;46.312;25.288;2022-11-12T01:27:13;26.80;;;16.70;;
50393;SDS011;36308;46.312;25.288;2022-11-12T01:29:38;28.77;;;16.42;;
50393;SDS011;36308;46.312;25.288;2022-11-12T01:32:04;27.65;;;16.30;;
50393;SDS011;36308;46.312;25.288;2022-11-12T01:34:30;27.30;;;17.58;;
50393;SDS011;36308;46.312;25.288;2022-11-12T01:36:55;29.55;;;16.98;;
50393;SDS011;36308;46.312;25.288;2022-11-12T01:39:21;30.23;;;17.73;;
50393;SDS011;36308;46.312;25.288;2022-11-12T01:41:46;30.92;;;19.77;;
50393;SDS011;36308;46.312;25.288;2022-11-12T01:44:13;31.48;;;19.65;;
50393;SDS011;36308;46.312;25.288;2022-11-12T01:52:19;27.27;;;17.50;;
50393;SDS011;36308;46.312;25.288;2022-11-12T01:54:56;27.98;;;16.33;;
50393;SDS011;36308;46.312;25.288;2022-11-12T01:57:28;23.15;;;15.32;;
50393;SDS011;36308;46.312;25.288;2022-11-12T02:00:00;21.67;;;14.35;;
50393;SDS011;36308;46.312;25.288;2022-11-12T02:02:30;23.05;;;14.70;;
50393;SDS011;36308;46.312;25.288;2022-11-12T02:04:56;25.58;;;13.98;;
50393;SDS011;36308;46.312;25.288;2022-11-12T02:07:22;20.92;;;12.80;;
50393;SDS011;36308;46.312;25.288;2022-11-12T02:09:49;24.80;;;13.35;;
50393;SDS011;36308;46.312;25.288;2022-11-12T02:12:17;21.40;;;12.65;;
50393;SDS011;36308;46.312;25.288;2022-11-12T02:15:01;22.88;;;14.02;;
50393;SDS011;36308;46.312;25.288;2022-11-12T02:17:27;25.55;;;14.93;;
50393;SDS011;36308;46.312;25.288;2022-11-12T02:19:53;24.23;;;15.18;;
50393;SDS011;36308;46.312;25.288;2022-11-12T02:22:23;24.63;;;14.10;;
50393;SDS011;36308;46.312;25.288;2022-11-12T02:24:49;21.52;;;13.85;;
50393;SDS011;36308;46.312;25.288;2022-11-12T02:27:14;21.95;;;13.68;;
50393;SDS011;36308;46.312;25.288;2022-11-12T02:29:39;20.73;;;11.85;;
50393;SDS011;36308;46.312;25.288;2022-11-12T02:32:13;18.60;;;11.98;;
50393;SDS011;36308;46.312;25.288;2022-11-12T02:34:39;20.10;;;10.82;;
50393;SDS011;36308;46.312;25.288;2022-11-12T02:37:05;15.27;;;8.82;;
50393;SDS011;36308;46.312;25.288;2022-11-12T02:39:31;15.40;;;8.73;;
50393;SDS011;36308;46.312;25.288;2022-11-12T02:41:58;13.07;;;8.50;;
50393;SDS011;36308;46.312;25.288;2022-11-12T02:44:23;12.52;;;7.78;;
50393;SDS011;36308;46.312;25.288;2022-11-12T02:46:49;10.75;;;7.50;;
50393;SDS011;36308;46.312;25.288;2022-11-12T02:49:14;12.95;;;7.40;;
50393;SDS011;36308;46.312;25.288;2022-11-12T02:51:39;12.60;;;8.13;;
50393;SDS011;36308;46.312;25.288;2022-11-12T02:54:05;14.80;;;8.52;;
50393;SDS011;36308;46.312;25.288;2022-11-12T02:56:30;12.88;;;8.52;;
50393;SDS011;36308;46.312;25.288;2022-11-12T02:58:56;15.02;;;8.50;;
50393;SDS011;36308;46.312;25.288;2022-11-12T03:01:21;13.50;;;7.78;;
50393;SDS011;36308;46.312;25.288;2022-11-12T03:03:47;13.15;;;8.52;;
50393;SDS011;36308;46.312;25.288;2022-11-12T03:06:12;11.95;;;7.95;;
50393;SDS011;36308;46.312;25.288;2022-11-12T03:08:38;14.43;;;8.55;;
50393;SDS011;36308;46.312;25.288;2022-11-12T03:11:10;11.30;;;7.03;;
50393;SDS011;36308;46.312;25.288;2022-11-12T03:13:37;11.60;;;6.80;;
50393;SDS011;36308;46.312;25.288;2022-11-12T03:16:03;11.40;;;7.43;;
50393;SDS011;36308;46.312;25.288;2022-11-12T03:18:29;11.98;;;7.55;;
50393;SDS011;36308;46.312;25.288;2022-11-12T03:20:54;12.15;;;7.25;;
50393;SDS011;36308;46.312;25.288;2022-11-12T03:23:20;14.18;;;8.23;;
50393;SDS011;36308;46.312;25.288;2022-11-12T03:25:45;13.88;;;8.15;;
50393;SDS011;36308;46.312;25.288;2022-11-12T03:28:12;21.27;;;11.35;;
50393;SDS011;36308;46.312;25.288;2022-11-12T03:30:40;25.23;;;12.57;;
50393;SDS011;36308;46.312;25.288;2022-11-12T03:33:07;23.70;;;12.45;;
50393;SDS011;36308;46.312;25.288;2022-11-12T03:35:37;23.20;;;12.65;;
50393;SDS011;36308;46.312;25.288;2022-11-12T03:38:03;20.10;;;10.73;;
50393;SDS011;36308;46.312;25.288;2022-11-12T03:40:30;17.42;;;10.40;;
50393;SDS011;36308;46.312;25.288;2022-11-12T03:42:56;22.25;;;10.10;;
50393;SDS011;36308;46.312;25.288;2022-11-12T03:45:23;16.48;;;9.85;;
50393;SDS011;36308;46.312;25.288;2022-11-12T03:47:50;15.50;;;9.32;;
50393;SDS011;36308;46.312;25.288;2022-11-12T03:50:18;16.02;;;8.93;;
50393;SDS011;36308;46.312;25.288;2022-11-12T03:52:46;14.95;;;7.93;;
50393;SDS011;36308;46.312;25.288;2022-11-12T03:55:13;14.75;;;8.77;;
50393;SDS011;36308;46.312;25.288;2022-11-12T03:57:40;13.32;;;8.63;;
50393;SDS011;36308;46.312;25.288;2022-11-12T04:00:07;14.52;;;8.98;;
50393;SDS011;36308;46.312;25.288;2022-11-12T04:02:34;16.10;;;9.63;;
50393;SDS011;36308;46.312;25.288;2022-11-12T04:05:00;17.25;;;10.00;;
50393;SDS011;36308;46.312;25.288;2022-11-12T04:07:44;18.20;;;9.05;;
50393;SDS011;36308;46.312;25.288;2022-11-12T04:10:27;15.88;;;9.25;;
50393;SDS011;36308;46.312;25.288;2022-11-12T04:12:55;16.52;;;9.60;;
50393;SDS011;36308;46.312;25.288;2022-11-12T04:15:39;15.27;;;9.68;;
50393;SDS011;36308;46.312;25.288;2022-11-12T04:18:04;18.63;;;9.80;;
50393;SDS011;36308;46.312;25.288;2022-11-12T04:20:48;15.32;;;10.05;;
50393;SDS011;36308;46.312;25.288;2022-11-12T04:23:32;23.20;;;13.02;;
50393;SDS011;36308;46.312;25.288;2022-11-12T04:25:58;17.67;;;11.15;;
50393;SDS011;36308;46.312;25.288;2022-11-12T04:28:42;23.17;;;12.93;;
50393;SDS011;36308;46.312;25.288;2022-11-12T04:31:28;18.35;;;11.93;;
50393;SDS011;36308;46.312;25.288;2022-11-12T04:33:53;20.33;;;12.95;;
50393;SDS011;36308;46.312;25.288;2022-11-12T04:36:18;21.77;;;11.93;;
50393;SDS011;36308;46.312;25.288;2022-11-12T04:38:44;20.08;;;12.98;;
50393;SDS011;36308;46.312;25.288;2022-11-12T04:41:09;21.98;;;12.60;;
50393;SDS011;36308;46.312;25.288;2022-11-12T04:44:04;17.75;;;12.95;;
50393;SDS011;36308;46.312;25.288;2022-11-12T04:46:50;20.52;;;14.23;;
50393;SDS011;36308;46.312;25.288;2022-11-12T04:49:15;21.13;;;13.70;;
50393;SDS011;36308;46.312;25.288;2022-11-12T04:51:40;23.88;;;15.73;;
50393;SDS011;36308;46.312;25.288;2022-11-12T04:54:24;21.33;;;13.52;;
50393;SDS011;36308;46.312;25.288;2022-11-12T04:56:50;18.05;;;12.20;;
50393;SDS011;36308;46.312;25.288;2022-11-12T04:59:15;21.52;;;13.25;;
50393;SDS011;36308;46.312;25.288;2022-11-12T05:01:40;18.88;;;13.00;;
50393;SDS011;36308;46.312;25.288;2022-11-12T05:04:06;25.38;;;13.95;;
50393;SDS011;36308;46.312;25.288;2022-11-12T05:06:31;19.73;;;12.27;;
50393;SDS011;36308;46.312;25.288;2022-11-12T05:09:15;18.80;;;11.45;;
50393;SDS011;36308;46.312;25.288;2022-11-12T05:11:42;19.63;;;13.15;;
50393;SDS011;36308;46.312;25.288;2022-11-12T05:14:07;23.45;;;14.70;;
50393;SDS011;36308;46.312;25.288;2022-11-12T05:16:32;18.17;;;13.05;;
50393;SDS011;36308;46.312;25.288;2022-11-12T05:18:58;19.83;;;13.43;;
50393;SDS011;36308;46.312;25.288;2022-11-12T05:21:23;26.17;;;14.45;;
50393;SDS011;36308;46.312;25.288;2022-11-12T05:24:07;19.77;;;11.07;;
50393;SDS011;36308;46.312;25.288;2022-11-12T05:26:33;18.80;;;12.30;;
50393;SDS011;36308;46.312;25.288;2022-11-12T05:28:58;20.52;;;11.10;;
50393;SDS011;36308;46.312;25.288;2022-11-12T05:31:24;19.63;;;11.00;;
50393;SDS011;36308;46.312;25.288;2022-11-12T05:33:49;21.50;;;11.80;;
50393;SDS011;36308;46.312;25.288;2022-11-12T05:36:14;19.40;;;11.77;;
50393;SDS011;36308;46.312;25.288;2022-11-12T05:38:40;24.63;;;12.63;;
50393;SDS011;36308;46.312;25.288;2022-11-12T05:41:05;19.63;;;13.40;;
50393;SDS011;36308;46.312;25.288;2022-11-12T05:43:31;19.27;;;11.40;;
50393;SDS011;36308;46.312;25.288;2022-11-12T05:45:56;16.75;;;11.27;;
50393;SDS011;36308;46.312;25.288;2022-11-12T05:48:21;19.88;;;11.48;;
50393;SDS011;36308;46.312;25.288;2022-11-12T05:50:50;23.23;;;12.75;;
50393;SDS011;36308;46.312;25.288;2022-11-12T05:53:16;20.70;;;12.45;;
50393;SDS011;36308;46.312;25.288;2022-11-12T05:55:41;27.00;;;15.75;;
50393;SDS011;36308;46.312;25.288;2022-11-12T05:58:07;20.95;;;13.80;;
50393;SDS011;36308;46.312;25.288;2022-11-12T06:00:32;22.73;;;13.77;;
50393;SDS011;36308;46.312;25.288;2022-11-12T06:03:04;22.02;;;14.85;;
50393;SDS011;36308;46.312;25.288;2022-11-12T06:05:30;24.15;;;17.42;;
50393;SDS011;36308;46.312;25.288;2022-11-12T06:07:57;28.50;;;16.20;;
50393;SDS011;36308;46.312;25.288;2022-11-12T06:10:22;38.92;;;24.23;;
50393;SDS011;36308;46.312;25.288;2022-11-12T06:12:48;39.88;;;27.02;;
50393;SDS011;36308;46.312;25.288;2022-11-12T06:15:14;54.10;;;36.17;;
50393;SDS011;36308;46.312;25.288;2022-11-12T06:17:39;52.38;;;34.10;;
50393;SDS011;36308;46.312;25.288;2022-11-12T06:20:05;55.00;;;36.13;;
50393;SDS011;36308;46.312;25.288;2022-11-12T06:22:31;62.17;;;37.17;;
50393;SDS011;36308;46.312;25.288;2022-11-12T06:24:56;58.95;;;38.90;;
50393;SDS011;36308;46.312;25.288;2022-11-12T06:27:22;63.90;;;41.25;;
50393;SDS011;36308;46.312;25.288;2022-11-12T06:29:48;62.80;;;41.70;;
50393;SDS011;36308;46.312;25.288;2022-11-12T06:32:13;56.38;;;37.63;;
50393;SDS011;36308;46.312;25.288;2022-11-12T06:34:39;54.50;;;35.53;;
50393;SDS011;36308;46.312;25.288;2022-11-12T06:37:04;49.40;;;31.80;;
50393;SDS011;36308;46.312;25.288;2022-11-12T06:39:30;44.33;;;29.00;;
50393;SDS011;36308;46.312;25.288;2022-11-12T06:41:55;42.15;;;28.25;;
50393;SDS011;36308;46.312;25.288;2022-11-12T06:44:20;48.45;;;30.33;;
50393;SDS011;36308;46.312;25.288;2022-11-12T06:46:46;49.08;;;31.17;;
50393;SDS011;36308;46.312;25.288;2022-11-12T06:49:11;58.05;;;35.10;;
50393;SDS011;36308;46.312;25.288;2022-11-12T06:51:37;48.25;;;29.27;;
50393;SDS011;36308;46.312;25.288;2022-11-12T06:54:04;49.95;;;30.20;;
50393;SDS011;36308;46.312;25.288;2022-11-12T06:56:30;48.95;;;30.65;;
50393;SDS011;36308;46.312;25.288;2022-11-12T06:58:55;44.90;;;27.23;;
50393;SDS011;36308;46.312;25.288;2022-11-12T07:01:21;40.72;;;25.95;;
50393;SDS011;36308;46.312;25.288;2022-11-12T07:03:50;34.50;;;23.08;;
50393;SDS011;36308;46.312;25.288;2022-11-12T07:06:17;39.17;;;24.15;;
50393;SDS011;36308;46.312;25.288;2022-11-12T07:08:44;35.80;;;23.15;;
50393;SDS011;36308;46.312;25.288;2022-11-12T07:11:11;38.50;;;23.30;;
50393;SDS011;36308;46.312;25.288;2022-11-12T07:13:37;47.97;;;28.15;;
50393;SDS011;36308;46.312;25.288;2022-11-12T07:16:04;41.53;;;25.88;;
50393;SDS011;36308;46.312;25.288;2022-11-12T07:18:31;45.58;;;28.30;;
50393;SDS011;36308;46.312;25.288;2022-11-12T07:21:01;39.20;;;22.42;;
50393;SDS011;36308;46.312;25.288;2022-11-12T07:23:30;28.35;;;17.10;;
50393;SDS011;36308;46.312;25.288;2022-11-12T07:28:23;25.75;;;15.32;;
50393;SDS011;36308;46.312;25.288;2022-11-12T07:30:54;25.95;;;14.82;;
50393;SDS011;36308;46.312;25.288;2022-11-12T07:33:23;24.52;;;14.13;;
50393;SDS011;36308;46.312;25.288;2022-11-12T07:35:55;24.75;;;14.93;;
50393;SDS011;36308;46.312;25.288;2022-11-12T07:38:25;23.25;;;14.75;;
50393;SDS011;36308;46.312;25.288;2022-11-12T07:40:51;24.13;;;13.50;;
50393;SDS011;36308;46.312;25.288;2022-11-12T07:43:22;25.23;;;13.55;;
50393;SDS011;36308;46.312;25.288;2022-11-12T07:45:47;21.60;;;13.20;;
50393;SDS011;36308;46.312;25.288;2022-11-12T07:48:12;23.83;;;14.80;;
50393;SDS011;36308;46.312;25.288;2022-11-12T07:50:38;23.27;;;14.10;;
50393;SDS011;36308;46.312;25.288;2022-11-12T07:53:03;25.13;;;14.90;;
50393;SDS011;36308;46.312;25.288;2022-11-12T07:55:29;22.40;;;12.80;;
50393;SDS011;36308;46.312;25.288;2022-11-12T07:57:57;20.50;;;13.32;;
50393;SDS011;36308;46.312;25.288;2022-11-12T08:00:23;23.73;;;13.30;;
50393;SDS011;36308;46.312;25.288;2022-11-12T08:02:49;20.25;;;12.55;;
50393;SDS011;36308;46.312;25.288;2022-11-12T08:05:14;18.77;;;11.15;;
50393;SDS011;36308;46.312;25.288;2022-11-12T08:07:40;17.63;;;10.82;;
50393;SDS011;36308;46.312;25.288;2022-11-12T08:10:05;15.63;;;10.18;;
50393;SDS011;36308;46.312;25.288;2022-11-12T08:12:31;20.63;;;11.00;;
50393;SDS011;36308;46.312;25.288;2022-11-12T08:14:56;19.05;;;11.45;;
50393;SDS011;36308;46.312;25.288;2022-11-12T08:17:22;19.80;;;11.65;;
50393;SDS011;36308;46.312;25.288;2022-11-12T08:19:47;18.30;;;10.80;;
50393;SDS011;36308;46.312;25.288;2022-11-12T08:22:13;15.93;;;10.05;;
50393;SDS011;36308;46.312;25.288;2022-11-12T08:24:39;19.83;;;10.70;;
50393;SDS011;36308;46.312;25.288;2022-11-12T08:27:04;16.20;;;9.85;;
50393;SDS011;36308;46.312;25.288;2022-11-12T08:29:30;15.63;;;9.95;;
50393;SDS011;36308;46.312;25.288;2022-11-12T08:31:55;17.45;;;10.15;;
50393;SDS011;36308;46.312;25.288;2022-11-12T08:34:20;15.70;;;9.80;;
50393;SDS011;36308;46.312;25.288;2022-11-12T08:36:46;14.38;;;8.90;;
50393;SDS011;36308;46.312;25.288;2022-11-12T08:39:11;16.15;;;9.95;;
50393;SDS011;36308;46.312;25.288;2022-11-12T08:41:37;18.17;;;10.77;;
50393;SDS011;36308;46.312;25.288;2022-11-12T08:44:02;18.80;;;11.38;;
50393;SDS011;36308;46.312;25.288;2022-11-12T08:46:28;17.83;;;11.25;;
50393;SDS011;36308;46.312;25.288;2022-11-12T08:48:54;18.70;;;11.40;;
50393;SDS011;36308;46.312;25.288;2022-11-12T08:51:19;17.15;;;10.90;;
50393;SDS011;36308;46.312;25.288;2022-11-12T08:53:44;15.52;;;9.82;;
50393;SDS011;36308;46.312;25.288;2022-11-12T08:56:10;17.95;;;10.95;;
50393;SDS011;36308;46.312;25.288;2022-11-12T08:58:35;17.23;;;11.15;;
50393;SDS011;36308;46.312;25.288;2022-11-12T09:01:05;17.67;;;10.88;;
50393;SDS011;36308;46.312;25.288;2022-11-12T09:03:31;21.55;;;12.43;;
50393;SDS011;36308;46.312;25.288;2022-11-12T09:05:56;22.15;;;14.68;;
50393;SDS011;36308;46.312;25.288;2022-11-12T09:08:26;19.30;;;11.80;;
50393;SDS011;36308;46.312;25.288;2022-11-12T09:10:51;17.73;;;11.00;;
50393;SDS011;36308;46.312;25.288;2022-11-12T09:13:16;17.13;;;11.02;;
50393;SDS011;36308;46.312;25.288;2022-11-12T09:15:43;13.55;;;9.00;;
50393;SDS011;36308;46.312;25.288;2022-11-12T09:18:10;13.85;;;9.10;;
50393;SDS011;36308;46.312;25.288;2022-11-12T09:20:37;14.38;;;9.75;;
50393;SDS011;36308;46.312;25.288;2022-11-12T09:23:07;15.77;;;9.65;;
50393;SDS011;36308;46.312;25.288;2022-11-12T09:25:42;15.00;;;9.10;;
50393;SDS011;36308;46.312;25.288;2022-11-12T09:28:09;14.52;;;9.25;;
50393;SDS011;36308;46.312;25.288;2022-11-12T09:30:37;13.98;;;9.43;;
50393;SDS011;36308;46.312;25.288;2022-11-12T09:33:05;17.02;;;10.07;;
50393;SDS011;36308;46.312;25.288;2022-11-12T09:35:31;14.65;;;8.75;;
50393;SDS011;36308;46.312;25.288;2022-11-12T09:37:56;13.35;;;8.93;;
50393;SDS011;36308;46.312;25.288;2022-11-12T09:40:29;12.70;;;8.30;;
50393;SDS011;36308;46.312;25.288;2022-11-12T09:43:08;12.43;;;8.35;;
50393;SDS011;36308;46.312;25.288;2022-11-12T09:45:55;13.98;;;8.48;;
50393;SDS011;36308;46.312;25.288;2022-11-12T09:48:33;13.95;;;8.55;;
50393;SDS011;36308;46.312;25.288;2022-11-12T09:51:25;13.07;;;8.65;;
50393;SDS011;36308;46.312;25.288;2022-11-12T09:54:03;11.88;;;7.97;;
50393;SDS011;36308;46.312;25.288;2022-11-12T09:56:37;14.27;;;8.45;;
50393;SDS011;36308;46.312;25.288;2022-11-12T09:59:04;13.93;;;8.32;;
50393;SDS011;36308;46.312;25.288;2022-11-12T10:07:15;11.00;;;7.00;;
50393;SDS011;36308;46.312;25.288;2022-11-12T10:26:13;10.20;;;6.47;;
50393;SDS011;36308;46.312;25.288;2022-11-12T10:31:25;12.13;;;6.40;;
50393;SDS011;36308;46.312;25.288;2022-11-12T10:33:50;10.65;;;7.65;;
50393;SDS011;36308;46.312;25.288;2022-11-12T10:36:34;13.18;;;6.68;;
50393;SDS011;36308;46.312;25.288;2022-11-12T10:39:03;10.13;;;6.45;;
50393;SDS011;36308;46.312;25.288;2022-11-12T10:41:29;9.95;;;6.97;;
50393;SDS011;36308;46.312;25.288;2022-11-12T10:43:58;9.73;;;6.85;;
50393;SDS011;36308;46.312;25.288;2022-11-12T10:46:31;11.43;;;7.20;;
50393;SDS011;36308;46.312;25.288;2022-11-12T10:49:05;10.38;;;7.55;;
50393;SDS011;36308;46.312;25.288;2022-11-12T10:51:40;9.93;;;6.80;;
50393;SDS011;36308;46.312;25.288;2022-11-12T10:54:19;13.05;;;8.65;;
50393;SDS011;36308;46.312;25.288;2022-11-12T10:56:52;11.48;;;7.88;;
50393;SDS011;36308;46.312;25.288;2022-11-12T10:59:21;11.75;;;8.35;;
50393;SDS011;36308;46.312;25.288;2022-11-12T11:01:57;13.38;;;8.75;;
50393;SDS011;36308;46.312;25.288;2022-11-12T11:04:32;12.10;;;8.05;;
50393;SDS011;36308;46.312;25.288;2022-11-12T11:07:04;12.05;;;8.43;;
50393;SDS011;36308;46.312;25.288;2022-11-12T11:09:39;10.02;;;7.18;;
50393;SDS011;36308;46.312;25.288;2022-11-12T11:12:27;12.45;;;8.23;;
50393;SDS011;36308;46.312;25.288;2022-11-12T11:17:52;8.68;;;6.28;;
50393;SDS011;36308;46.312;25.288;2022-11-12T11:20:22;12.00;;;7.10;;
50393;SDS011;36308;46.312;25.288;2022-11-12T11:22:54;11.63;;;6.53;;
50393;SDS011;36308;46.312;25.288;2022-11-12T11:25:27;8.88;;;6.22;;
50393;SDS011;36308;46.312;25.288;2022-11-12T11:30:28;13.52;;;8.32;;
50393;SDS011;36308;46.312;25.288;2022-11-12T11:46:16;8.48;;;5.05;;
50393;SDS011;36308;46.312;25.288;2022-11-12T12:00:34;8.18;;;5.00;;
50393;SDS011;36308;46.312;25.288;2022-11-12T12:05:58;7.63;;;5.20;;
50393;SDS011;36308;46.312;25.288;2022-11-12T12:22:14;9.48;;;5.70;;
50393;SDS011;36308;46.312;25.288;2022-11-12T12:25:10;6.15;;;4.47;;
50393;SDS011;36308;46.312;25.288;2022-11-12T12:27:46;7.88;;;5.13;;
50393;SDS011;36308;46.312;25.288;2022-11-12T12:30:21;8.63;;;5.65;;
50393;SDS011;36308;46.312;25.288;2022-11-12T12:38:10;6.93;;;4.93;;
50393;SDS011;36308;46.312;25.288;2022-11-12T12:44:09;7.72;;;5.40;;
50393;SDS011;36308;46.312;25.288;2022-11-12T12:46:29;7.20;;;4.68;;
50393;SDS011;36308;46.312;25.288;2022-11-12T12:49:02;9.90;;;4.93;;
50393;SDS011;36308;46.312;25.288;2022-11-12T12:51:30;7.15;;;4.82;;
50393;SDS011;36308;46.312;25.288;2022-11-12T12:53:57;8.35;;;5.63;;
50393;SDS011;36308;46.312;25.288;2022-11-12T12:58:54;9.15;;;6.03;;
50393;SDS011;36308;46.312;25.288;2022-11-12T13:03:52;8.27;;;5.05;;
50393;SDS011;36308;46.312;25.288;2022-11-12T13:06:24;9.35;;;5.55;;
50393;SDS011;36308;46.312;25.288;2022-11-12T13:17:07;10.40;;;5.40;;
50393;SDS011;36308;46.312;25.288;2022-11-12T13:19:38;11.35;;;6.60;;
50393;SDS011;36308;46.312;25.288;2022-11-12T13:22:32;8.05;;;6.30;;
50393;SDS011;36308;46.312;25.288;2022-11-12T13:25:05;10.52;;;8.88;;
50393;SDS011;36308;46.312;25.288;2022-11-12T13:37:44;8.02;;;5.15;;
50393;SDS011;36308;46.312;25.288;2022-11-12T13:43:10;15.88;;;11.52;;
50393;SDS011;36308;46.312;25.288;2022-11-12T13:45:46;14.10;;;10.95;;
50393;SDS011;36308;46.312;25.288;2022-11-12T13:51:14;11.18;;;6.95;;
50393;SDS011;36308;46.312;25.288;2022-11-12T13:53:42;13.63;;;8.00;;
50393;SDS011;36308;46.312;25.288;2022-11-12T13:56:12;9.15;;;5.38;;
50393;SDS011;36308;46.312;25.288;2022-11-12T13:58:50;8.50;;;5.15;;
50393;SDS011;36308;46.312;25.288;2022-11-12T14:01:17;10.25;;;5.75;;
50393;SDS011;36308;46.312;25.288;2022-11-12T14:03:46;11.90;;;5.72;;
50393;SDS011;36308;46.312;25.288;2022-11-12T14:06:30;26.00;;;14.05;;
50393;SDS011;36308;46.312;25.288;2022-11-12T14:09:14;17.30;;;9.57;;
50393;SDS011;36308;46.312;25.288;2022-11-12T14:11:50;29.42;;;14.23;;
50393;SDS011;36308;46.312;25.288;2022-11-12T14:20:39;19.95;;;11.10;;
50393;SDS011;36308;46.312;25.288;2022-11-12T14:23:13;17.88;;;12.45;;
50393;SDS011;36308;46.312;25.288;2022-11-12T14:28:26;42.95;;;28.45;;
50393;SDS011;36308;46.312;25.288;2022-11-12T14:30:53;43.88;;;26.25;;
50393;SDS011;36308;46.312;25.288;2022-11-12T14:33:21;54.97;;;13.68;;
50393;SDS011;36308;46.312;25.288;2022-11-12T14:35:48;32.75;;;16.10;;
50393;SDS011;36308;46.312;25.288;2022-11-12T14:38:17;92.13;;;24.30;;
50393;SDS011;36308;46.312;25.288;2022-11-12T14:40:50;82.47;;;42.95;;
50393;SDS011;36308;46.312;25.288;2022-11-12T14:43:32;142.13;;;63.92;;
50393;SDS011;36308;46.312;25.288;2022-11-12T14:46:00;178.10;;;76.38;;
50393;SDS011;36308;46.312;25.288;2022-11-12T14:48:28;87.90;;;44.92;;
50393;SDS011;36308;46.312;25.288;2022-11-12T14:51:03;32.10;;;22.08;;
50393;SDS011;36308;46.312;25.288;2022-11-12T14:53:36;31.45;;;22.50;;
50393;SDS011;36308;46.312;25.288;2022-11-12T14:56:06;92.53;;;41.83;;
50393;SDS011;36308;46.312;25.288;2022-11-12T14:58:33;122.47;;;51.92;;
50393;SDS011;36308;46.312;25.288;2022-11-12T15:01:15;339.92;;;88.63;;
50393;SDS011;36308;46.312;25.288;2022-11-12T15:03:45;82.65;;;38.80;;
50393;SDS011;36308;46.312;25.288;2022-11-12T15:06:10;79.78;;;39.40;;
50393;SDS011;36308;46.312;25.288;2022-11-12T15:08:38;22.42;;;15.73;;
50393;SDS011;36308;46.312;25.288;2022-11-12T15:11:18;37.97;;;24.67;;
50393;SDS011;36308;46.312;25.288;2022-11-12T15:13:53;54.53;;;34.55;;
50393;SDS011;36308;46.312;25.288;2022-11-12T15:16:31;36.30;;;25.80;;
50393;SDS011;36308;46.312;25.288;2022-11-12T15:19:17;50.33;;;35.10;;
50393;SDS011;36308;46.312;25.288;2022-11-12T15:21:51;55.22;;;37.13;;
50393;SDS011;36308;46.312;25.288;2022-11-12T15:24:31;58.75;;;39.67;;
50393;SDS011;36308;46.312;25.288;2022-11-12T15:26:59;58.03;;;37.90;;
50393;SDS011;36308;46.312;25.288;2022-11-12T15:31:55;55.83;;;35.30;;
50393;SDS011;36308;46.312;25.288;2022-11-12T15:37:06;45.03;;;27.73;;
50393;SDS011;36308;46.312;25.288;2022-11-12T15:39:37;41.03;;;24.70;;
50393;SDS011;36308;46.312;25.288;2022-11-12T15:44:41;22.52;;;14.63;;
50393;SDS011;36308;46.312;25.288;2022-11-12T15:47:29;29.40;;;21.15;;
50393;SDS011;36308;46.312;25.288;2022-11-12T15:49:54;46.40;;;31.00;;
50393;SDS011;36308;46.312;25.288;2022-11-12T15:52:23;34.25;;;23.25;;
50393;SDS011;36308;46.312;25.288;2022-11-12T15:54:49;30.85;;;24.30;;
50393;SDS011;36308;46.312;25.288;2022-11-12T15:57:37;42.10;;;28.70;;
50393;SDS011;36308;46.312;25.288;2022-11-12T16:00:08;58.42;;;37.15;;
50393;SDS011;36308;46.312;25.288;2022-11-12T16:02:38;53.13;;;37.58;;
50393;SDS011;36308;46.312;25.288;2022-11-12T16:05:03;51.25;;;36.05;;
50393;SDS011;36308;46.312;25.288;2022-11-12T16:07:29;50.22;;;36.05;;
50393;SDS011;36308;46.312;25.288;2022-11-12T16:09:55;66.72;;;47.25;;
50393;SDS011;36308;46.312;25.288;2022-11-12T16:12:20;132.23;;;80.95;;
50393;SDS011;36308;46.312;25.288;2022-11-12T16:14:46;90.38;;;59.40;;
50393;SDS011;36308;46.312;25.288;2022-11-12T16:17:12;38.35;;;27.20;;
50393;SDS011;36308;46.312;25.288;2022-11-12T16:19:39;40.55;;;30.48;;
50393;SDS011;36308;46.312;25.288;2022-11-12T16:22:05;39.42;;;29.25;;
50393;SDS011;36308;46.312;25.288;2022-11-12T16:24:37;47.35;;;30.75;;
50393;SDS011;36308;46.312;25.288;2022-11-12T16:27:08;50.90;;;32.90;;
50393;SDS011;36308;46.312;25.288;2022-11-12T16:29:37;43.95;;;29.20;;
50393;SDS011;36308;46.312;25.288;2022-11-12T16:32:02;43.58;;;30.17;;
50393;SDS011;36308;46.312;25.288;2022-11-12T16:34:28;37.10;;;26.83;;
50393;SDS011;36308;46.312;25.288;2022-11-12T16:36:54;33.63;;;23.95;;
50393;SDS011;36308;46.312;25.288;2022-11-12T16:39:20;25.45;;;17.40;;